Time;durP1;ratioP1;P1;durP2;ratioP2;P2;SDS_P1;SDS_P2;PMS_P1;PMS_P2;Temp;Humidity;BMP_temperature;BMP_pressure;BME280_temperature;BME280_humidity;BME280_pressure;Samples;Min_cycle;Max_cycle;Signal;HPM_P1;HPM_P2
2023/09/01 00:00:20;;;;;;;10.38;2.90;;;;;;;17.41;61.72;101094.63;5101316;28;20056;-59
2023/09/01 00:02:47;;;;;;;9.48;2.70;;;;;;;17.41;61.78;101097.34;5104022;28;20070;-58
2023/09/01 00:05:15;;;;;;;7.53;3.35;;;;;;;17.39;61.85;101094.06;5103802;28;20066;-58
2023/09/01 00:07:44;;;;;;;7.63;2.65;;;;;;;17.39;61.75;101095.97;5100160;28;20158;-58
2023/09/01 00:10:14;;;;;;;6.90;2.33;;;;;;;17.37;61.86;101098.94;5100757;28;20040;-59
2023/09/01 00:12:42;;;;;;;4.43;2.35;;;;;;;17.37;61.92;101098.13;5099553;28;20529;-60
2023/09/01 00:15:10;;;;;;;5.05;2.40;;;;;;;17.36;61.77;101086.44;5100057;28;20048;-59
2023/09/01 00:17:38;;;;;;;7.60;2.08;;;;;;;17.35;61.77;101084.00;5102395;28;20052;-58
2023/09/01 00:20:07;;;;;;;6.93;2.40;;;;;;;17.34;61.72;101082.34;5103952;28;20080;-59
2023/09/01 00:22:36;;;;;;;6.78;2.45;;;;;;;17.24;61.99;101066.84;5105540;28;20040;-59
2023/09/01 00:25:05;;;;;;;5.57;2.78;;;;;;;17.34;61.82;101077.75;5105086;28;20052;-59
2023/09/01 00:27:34;;;;;;;6.85;3.20;;;;;;;17.33;61.86;101078.03;5101809;28;20048;-58
2023/09/01 00:30:02;;;;;;;9.27;2.70;;;;;;;17.33;61.98;101072.59;5101296;28;20040;-58
2023/09/01 00:32:30;;;;;;;4.60;2.67;;;;;;;17.32;62.01;101077.22;5104444;28;20252;-59
2023/09/01 00:34:58;;;;;;;10.32;3.10;;;;;;;17.32;62.27;101084.53;5105539;28;20071;-59
2023/09/01 00:37:26;;;;;;;7.70;2.85;;;;;;;17.31;61.79;101078.28;5103868;28;20071;-59
2023/09/01 00:39:54;;;;;;;6.10;2.42;;;;;;;17.30;61.94;101084.81;5101054;28;20048;-60
2023/09/01 00:42:22;;;;;;;6.72;2.58;;;;;;;17.31;62.00;101088.34;5099836;28;20044;-59
2023/09/01 00:44:51;;;;;;;7.68;2.90;;;;;;;17.30;61.93;101076.66;5102313;28;20051;-57
2023/09/01 00:47:19;;;;;;;8.40;2.45;;;;;;;17.29;61.98;101068.75;5104197;28;20044;-59
2023/09/01 00:49:47;;;;;;;7.03;2.63;;;;;;;17.30;62.06;101059.53;5100570;28;20051;-60
2023/09/01 00:52:15;;;;;;;8.77;3.67;;;;;;;17.29;61.97;101066.06;5102103;28;20044;-59
2023/09/01 00:54:43;;;;;;;8.18;2.70;;;;;;;17.28;62.00;101067.13;5100595;28;20044;-59
2023/09/01 00:57:10;;;;;;;8.85;3.08;;;;;;;17.27;61.98;101062.78;5103127;28;20117;-58
2023/09/01 00:59:38;;;;;;;6.63;2.70;;;;;;;17.27;61.84;101073.63;5099381;28;20048;-59
2023/09/01 01:02:07;;;;;;;6.00;2.78;;;;;;;17.27;62.01;101071.75;5102116;28;20044;-58
2023/09/01 01:04:35;;;;;;;7.80;3.13;;;;;;;17.27;62.05;101081.78;5102920;28;20040;-59
2023/09/01 01:07:09;;;;;;;9.98;3.58;;;;;;;17.26;62.20;101075.53;5099460;28;20466;-59
2023/09/01 01:09:46;;;;;;;11.38;3.97;;;;;;;17.23;61.95;101070.63;5099840;28;20078;-59
2023/09/01 01:12:21;;;;;;;6.80;2.60;;;;;;;17.25;61.90;101079.34;5091213;28;20055;-59
2023/09/01 01:14:53;;;;;;;9.35;3.15;;;;;;;17.26;62.01;101080.16;5098902;28;20155;-58
2023/09/01 01:17:24;;;;;;;8.23;2.55;;;;;;;17.26;61.93;101077.44;5100611;28;20048;-59
2023/09/01 01:19:54;;;;;;;5.18;2.13;;;;;;;17.24;61.85;101074.97;5103012;28;20107;-59
2023/09/01 01:22:36;;;;;;;6.15;2.75;;;;;;;17.23;62.08;101070.63;5101330;28;20047;-58
2023/09/01 01:25:07;;;;;;;6.60;2.78;;;;;;;17.23;62.05;101066.00;5102035;28;20354;-60
2023/09/01 01:27:35;;;;;;;11.20;3.92;;;;;;;17.22;61.88;101066.28;5098488;28;20391;-58
2023/09/01 01:30:05;;;;;;;6.40;2.92;;;;;;;17.22;62.12;101061.66;5096141;28;20055;-59
2023/09/01 01:32:33;;;;;;;7.57;3.85;;;;;;;17.21;62.18;101060.03;5099972;28;20148;-58
2023/09/01 01:35:11;;;;;;;5.50;2.50;;;;;;;17.21;62.00;101060.03;5101307;28;20139;-58
2023/09/01 01:37:44;;;;;;;8.60;3.05;;;;;;;17.21;62.06;101070.06;5095604;28;20063;-60
2023/09/01 01:40:14;;;;;;;6.53;2.47;;;;;;;17.20;62.06;101063.81;5100626;28;20044;-59
2023/09/01 01:42:46;;;;;;;6.88;2.85;;;;;;;17.19;62.20;101062.19;5099383;28;20518;-59
2023/09/01 01:45:16;;;;;;;9.85;3.17;;;;;;;17.18;62.15;101063.25;5098288;28;20067;-59
2023/09/01 01:47:44;;;;;;;6.78;2.65;;;;;;;17.19;62.14;101067.59;5101510;28;20065;-59
2023/09/01 01:50:12;;;;;;;6.47;2.38;;;;;;;17.17;62.22;101077.09;5098469;28;20070;-60
2023/09/01 01:52:40;;;;;;;6.68;2.55;;;;;;;17.17;62.27;101077.09;5101547;28;20504;-60
2023/09/01 01:55:09;;;;;;;10.48;3.05;;;;;;;17.15;62.23;101080.06;5101623;28;20040;-60
2023/09/01 01:57:38;;;;;;;6.10;2.60;;;;;;;17.15;62.29;101080.06;5100597;28;20047;-60
2023/09/01 02:00:11;;;;;;;9.10;3.30;;;;;;;17.13;62.21;101071.38;5099685;28;20048;-60
2023/09/01 02:02:39;;;;;;;8.43;2.90;;;;;;;17.13;62.25;101065.13;5101037;28;20084;-59
2023/09/01 02:05:07;;;;;;;6.38;2.70;;;;;;;17.13;62.38;101060.50;5098847;28;20070;-59
2023/09/01 02:07:35;;;;;;;8.98;3.33;;;;;;;17.12;62.43;101061.59;5099922;28;20048;-59
2023/09/01 02:10:05;;;;;;;7.32;2.55;;;;;;;17.04;62.44;101048.47;5098611;28;20036;-59
2023/09/01 02:12:34;;;;;;;6.30;2.92;;;;;;;17.09;62.52;101064.00;5099620;28;20059;-59
2023/09/01 02:15:08;;;;;;;5.93;2.53;;;;;;;17.06;62.47;101057.19;5096169;28;20096;-59
2023/09/01 02:17:36;;;;;;;6.68;2.72;;;;;;;17.09;62.57;101064.00;5100944;28;20044;-59
2023/09/01 02:20:16;;;;;;;5.85;2.58;;;;;;;17.10;62.70;101060.19;5101174;28;20109;-58
2023/09/01 02:22:45;;;;;;;7.38;3.45;;;;;;;17.09;62.43;101058.56;5103239;28;20100;-58
2023/09/01 02:25:13;;;;;;;6.85;2.80;;;;;;;17.09;62.59;101050.41;5102703;28;20064;-58
2023/09/01 02:27:42;;;;;;;5.55;2.80;;;;;;;17.06;62.66;101043.59;5098704;28;20044;-58
2023/09/01 02:30:13;;;;;;;7.05;2.88;;;;;;;17.08;62.79;101046.06;5097304;28;20539;-59
2023/09/01 02:32:41;;;;;;;5.80;2.35;;;;;;;17.07;62.82;101049.88;5101412;28;20044;-59
2023/09/01 02:35:09;;;;;;;6.53;2.63;;;;;;;17.06;62.83;101049.03;5102432;28;20056;-59
2023/09/01 02:37:38;;;;;;;6.25;2.67;;;;;;;17.08;62.83;101054.22;5100652;28;20040;-59
2023/09/01 02:40:10;;;;;;;4.63;2.03;;;;;;;17.06;63.10;101061.81;5100442;28;20062;-59
2023/09/01 02:42:40;;;;;;;9.73;3.38;;;;;;;17.02;62.95;101047.09;5100165;28;20070;-59
2023/09/01 02:45:12;;;;;;;5.32;2.67;;;;;;;17.05;63.24;101060.16;5098783;28;20040;-59
2023/09/01 02:47:41;;;;;;;7.90;3.10;;;;;;;17.04;63.21;101058.53;5099046;28;20081;-60
2023/09/01 02:50:10;;;;;;;6.07;2.38;;;;;;;17.05;63.02;101049.31;5101318;28;20051;-58
2023/09/01 02:52:38;;;;;;;6.45;2.97;;;;;;;17.04;63.25;101053.91;5101915;28;20044;-59
2023/09/01 02:55:06;;;;;;;7.30;2.97;;;;;;;17.05;63.06;101046.59;5098083;28;20048;-58
2023/09/01 02:57:35;;;;;;;7.57;3.00;;;;;;;17.05;63.24;101049.31;5099571;28;20063;-59
2023/09/01 03:00:14;;;;;;;9.75;3.60;;;;;;;17.04;63.29;101051.19;5097549;28;20637;-58
2023/09/01 03:02:44;;;;;;;5.93;2.92;;;;;;;17.05;63.23;101050.13;5096871;28;20055;-58
2023/09/01 03:05:12;;;;;;;6.32;2.85;;;;;;;17.04;63.14;101047.66;5099135;28;20375;-58
2023/09/01 03:07:41;;;;;;;8.32;3.00;;;;;;;17.06;62.99;101050.94;5096987;28;20063;-58
2023/09/01 03:10:10;;;;;;;5.90;2.67;;;;;;;17.04;63.11;101043.06;5100083;28;20055;-59
2023/09/01 03:12:38;;;;;;;7.25;2.75;;;;;;;17.05;63.11;101052.00;5099872;28;20062;-59
2023/09/01 03:15:09;;;;;;;5.70;2.35;;;;;;;17.03;63.13;101049.56;5096736;28;20125;-59
2023/09/01 03:17:37;;;;;;;5.57;2.83;;;;;;;17.05;63.08;101046.59;5099160;28;20063;-58
2023/09/01 03:20:10;;;;;;;10.23;3.25;;;;;;;17.03;63.04;101041.41;5102299;28;20106;-59
2023/09/01 03:22:38;;;;;;;7.40;2.45;;;;;;;17.03;63.04;101035.16;5099156;28;20610;-58
2023/09/01 03:25:09;;;;;;;5.43;2.50;;;;;;;17.02;63.02;101037.06;5099981;28;20051;-58
2023/09/01 03:27:38;;;;;;;7.05;3.08;;;;;;;17.02;62.95;101031.63;5097630;28;20058;-58
2023/09/01 03:30:08;;;;;;;7.07;3.03;;;;;;;17.02;62.88;101031.63;5097749;28;20063;-58
2023/09/01 03:32:36;;;;;;;6.38;2.30;;;;;;;17.02;63.02;101030.81;5103255;28;20040;-58
2023/09/01 03:35:04;;;;;;;6.95;2.60;;;;;;;17.02;63.14;101031.63;5103117;28;20072;-58
2023/09/01 03:37:33;;;;;;;6.43;2.83;;;;;;;17.02;62.95;101028.09;5101888;28;20072;-58
2023/09/01 03:40:01;;;;;;;9.02;2.78;;;;;;;17.01;63.08;101032.72;5102097;28;20048;-58
2023/09/01 03:42:29;;;;;;;5.47;2.92;;;;;;;17.00;63.19;101031.06;5103218;28;20112;-59
2023/09/01 03:44:57;;;;;;;5.63;2.50;;;;;;;16.99;63.15;101031.34;5102029;28;20155;-59
2023/09/01 03:47:25;;;;;;;8.82;2.53;;;;;;;16.99;63.17;101034.03;5102980;28;20070;-60
2023/09/01 03:49:53;;;;;;;6.55;2.67;;;;;;;16.98;63.33;101030.50;5104226;28;20116;-57
2023/09/01 03:52:21;;;;;;;6.57;2.92;;;;;;;16.97;63.34;101026.16;5102031;28;20055;-60
2023/09/01 03:54:51;;;;;;;7.80;2.58;;;;;;;16.98;63.36;101024.28;5103324;28;20056;-60
2023/09/01 03:57:19;;;;;;;10.30;3.03;;;;;;;16.97;63.50;101028.88;5101835;28;20056;-60
2023/09/01 03:59:48;;;;;;;10.95;2.75;;;;;;;16.96;63.38;101038.09;5099951;28;20390;-59
2023/09/01 04:02:16;;;;;;;6.75;2.47;;;;;;;16.97;63.32;101028.06;5101647;28;20070;-59
2023/09/01 04:04:44;;;;;;;7.78;3.00;;;;;;;16.84;63.56;101005.69;5103672;28;20044;-59
2023/09/01 04:07:11;;;;;;;7.78;3.38;;;;;;;16.96;63.51;101018.28;5101177;28;20136;-60
2023/09/01 04:09:39;;;;;;;5.45;2.63;;;;;;;16.95;63.48;101016.63;5097692;28;20503;-59
2023/09/01 04:12:09;;;;;;;6.68;2.42;;;;;;;16.95;63.63;101008.50;5100894;28;20056;-59
2023/09/01 04:14:37;;;;;;;4.72;2.50;;;;;;;16.95;63.52;101014.75;5100658;28;20056;-59
2023/09/01 04:17:05;;;;;;;7.30;3.10;;;;;;;16.93;63.77;101014.19;5100797;28;20070;-59
2023/09/01 04:19:33;;;;;;;5.68;2.40;;;;;;;16.94;63.49;101018.53;5102019;28;20048;-59
2023/09/01 04:22:00;;;;;;;6.88;3.00;;;;;;;16.94;63.58;101017.72;5104608;28;20078;-59
2023/09/01 04:24:28;;;;;;;5.45;2.40;;;;;;;16.91;63.65;101010.91;5102359;28;20048;-59
2023/09/01 04:26:56;;;;;;;6.97;2.33;;;;;;;16.92;63.67;101013.38;5104988;28;20043;-59
2023/09/01 04:29:26;;;;;;;5.15;2.58;;;;;;;16.92;63.77;101001.69;5096741;28;20046;-59
2023/09/01 04:31:53;;;;;;;6.60;2.75;;;;;;;16.94;63.77;101006.84;5099352;28;20052;-59
2023/09/01 04:34:20;;;;;;;4.65;2.47;;;;;;;16.92;63.76;101005.22;5104414;28;20121;-59
2023/09/01 04:36:50;;;;;;;4.30;2.38;;;;;;;16.92;63.72;101004.41;5100494;28;20120;-60
2023/09/01 04:39:17;;;;;;;4.60;2.30;;;;;;;16.91;63.78;101006.31;5098043;28;20078;-60
2023/09/01 04:41:45;;;;;;;6.93;2.13;;;;;;;16.92;63.82;101012.53;5101362;28;20125;-58
2023/09/01 04:44:13;;;;;;;8.68;2.55;;;;;;;16.92;63.90;101016.09;5097484;28;20059;-58
2023/09/01 04:46:43;;;;;;;4.03;2.30;;;;;;;16.92;63.76;101018.78;5100900;28;20055;-59
2023/09/01 04:49:10;;;;;;;5.32;2.30;;;;;;;16.92;63.96;101016.09;5100611;28;20044;-58
2023/09/01 04:51:38;;;;;;;5.65;2.30;;;;;;;16.92;63.90;101015.25;5100344;28;20435;-59
2023/09/01 04:54:06;;;;;;;5.63;2.47;;;;;;;16.94;64.00;101025.88;5099693;28;20075;-59
2023/09/01 04:56:34;;;;;;;5.05;2.42;;;;;;;16.92;63.70;101021.50;5094367;28;20055;-58
2023/09/01 04:59:02;;;;;;;4.90;2.42;;;;;;;16.92;63.79;101023.41;5098312;28;20074;-58
2023/09/01 05:01:30;;;;;;;5.40;2.60;;;;;;;16.92;63.75;101029.66;5101655;28;20737;-58
2023/09/01 05:03:59;;;;;;;5.18;2.40;;;;;;;16.91;63.78;101014.44;5099443;28;20080;-58
2023/09/01 05:06:27;;;;;;;5.03;2.42;;;;;;;16.91;63.50;101014.44;5102103;28;20394;-58
2023/09/01 05:08:55;;;;;;;6.47;2.83;;;;;;;16.91;63.65;101011.72;5099244;28;20104;-58
2023/09/01 05:11:23;;;;;;;5.00;2.67;;;;;;;16.90;63.76;101015.53;5102419;28;20066;-60
2023/09/01 05:13:51;;;;;;;5.75;2.22;;;;;;;16.88;63.75;101008.72;5102351;28;20506;-57
2023/09/01 05:16:18;;;;;;;7.53;3.53;;;;;;;16.89;63.81;101013.88;5099132;28;20501;-58
2023/09/01 05:18:47;;;;;;;12.73;2.97;;;;;;;16.90;63.62;101017.41;5099796;28;20060;-59
2023/09/01 05:21:16;;;;;;;7.05;2.53;;;;;;;16.90;63.71;101017.41;5099285;28;20048;-59
2023/09/01 05:23:44;;;;;;;6.13;2.63;;;;;;;16.89;63.87;101013.06;5100387;28;20052;-59
2023/09/01 05:26:12;;;;;;;4.10;2.45;;;;;;;16.88;63.75;101014.97;5103023;28;20081;-59
2023/09/01 05:28:40;;;;;;;6.22;2.70;;;;;;;16.90;63.96;101031.00;5100113;28;20059;-60
2023/09/01 05:31:07;;;;;;;4.68;2.80;;;;;;;16.81;64.10;101022.50;5100395;28;20059;-60
2023/09/01 05:33:35;;;;;;;5.43;2.25;;;;;;;16.91;63.89;101035.34;5102766;28;20082;-60
2023/09/01 05:36:03;;;;;;;3.85;2.40;;;;;;;16.89;63.82;101029.34;5100607;28;20048;-61
2023/09/01 05:38:33;;;;;;;4.80;2.30;;;;;;;16.90;64.09;101039.13;5099783;28;20052;-60
2023/09/01 05:41:03;;;;;;;4.10;2.33;;;;;;;16.89;64.19;101032.06;5099562;28;20051;-60
2023/09/01 05:43:31;;;;;;;6.22;2.30;;;;;;;16.88;64.29;101025.81;4741396;28;10000558;-60
2023/09/01 05:45:59;;;;;;;5.80;2.25;;;;;;;16.88;64.21;101033.16;5096138;28;20082;-60
2023/09/01 05:48:30;;;;;;;7.78;3.00;;;;;;;16.88;64.07;101031.25;5092978;28;20052;-60
2023/09/01 05:50:58;;;;;;;8.68;3.45;;;;;;;16.88;64.39;101025.81;5096412;28;20216;-59
2023/09/01 05:53:27;;;;;;;5.57;2.67;;;;;;;16.88;64.30;101025.81;5100527;28;20111;-58
2023/09/01 05:55:56;;;;;;;6.07;2.88;;;;;;;16.88;64.29;101022.28;5093793;28;20160;-58
2023/09/01 05:58:24;;;;;;;8.35;2.80;;;;;;;16.86;64.28;101017.13;5099795;28;20090;-58
2023/09/01 06:00:52;;;;;;;6.10;2.50;;;;;;;16.85;64.31;101017.38;5093907;28;20124;-58
2023/09/01 06:03:19;;;;;;;7.18;2.70;;;;;;;16.88;64.32;101025.00;5096868;28;20075;-59
2023/09/01 06:05:47;;;;;;;3.92;2.45;;;;;;;16.88;64.11;101025.00;5093537;28;20114;-60
2023/09/01 06:08:15;;;;;;;4.97;2.63;;;;;;;16.86;64.18;101019.84;5096007;28;20060;-59
2023/09/01 06:10:43;;;;;;;5.28;2.50;;;;;;;16.89;64.07;101018.50;5093540;28;20036;-60
2023/09/01 06:13:13;;;;;;;8.32;3.10;;;;;;;16.80;64.52;101009.19;5097477;28;20113;-61
2023/09/01 06:15:40;;;;;;;22.70;3.38;;;;;;;16.85;66.20;101018.19;5098957;28;20477;-59
2023/09/01 06:18:08;;;;;;;8.32;3.42;;;;;;;16.87;65.83;101017.94;5102785;28;20051;-59
2023/09/01 06:20:36;;;;;;;6.88;3.25;;;;;;;16.87;65.32;101018.75;5103066;28;20050;-58
2023/09/01 06:23:04;;;;;;;10.82;3.38;;;;;;;16.87;65.22;101024.19;5102723;28;20052;-59
2023/09/01 06:25:32;;;;;;;13.25;3.78;;;;;;;16.89;65.29;101023.94;5103229;28;20048;-58
2023/09/01 06:27:59;;;;;;;8.07;2.70;;;;;;;16.89;65.23;101029.34;5104184;28;20048;-58
2023/09/01 06:30:29;;;;;;;7.95;2.90;;;;;;;16.88;65.24;101023.09;5100851;28;20040;-58
2023/09/01 06:32:56;;;;;;;11.18;3.22;;;;;;;16.87;65.24;101031.50;5101211;28;20115;-59
2023/09/01 06:35:24;;;;;;;7.88;3.50;;;;;;;16.89;65.42;101032.88;5095887;28;20466;-59
2023/09/01 06:37:52;;;;;;;7.20;3.85;;;;;;;16.89;65.14;101027.47;5100196;28;20040;-58
2023/09/01 06:40:20;;;;;;;10.50;3.88;;;;;;;16.90;65.38;101031.81;5099729;28;20070;-58
2023/09/01 06:42:48;;;;;;;7.13;2.78;;;;;;;16.91;65.25;101046.19;5101237;28;20055;-59
2023/09/01 06:45:16;;;;;;;6.32;3.20;;;;;;;16.90;65.39;101042.66;5099525;28;20178;-60
2023/09/01 06:47:46;;;;;;;5.53;2.72;;;;;;;16.91;65.22;101040.78;5102983;28;20099;-59
2023/09/01 06:50:14;;;;;;;8.82;3.03;;;;;;;16.91;65.25;101040.78;5102374;28;20044;-58
2023/09/01 06:52:42;;;;;;;4.70;2.92;;;;;;;16.90;65.03;101042.66;5101668;28;20066;-58
2023/09/01 06:55:11;;;;;;;7.55;2.90;;;;;;;16.89;65.36;101041.03;5102935;28;20059;-58
2023/09/01 06:57:40;;;;;;;5.53;3.03;;;;;;;16.90;65.41;101045.38;5102460;28;20048;-58
2023/09/01 07:00:09;;;;;;;8.15;3.17;;;;;;;16.89;65.57;101034.78;5100772;28;20071;-58
2023/09/01 07:02:37;;;;;;;6.50;3.05;;;;;;;16.91;65.49;101035.34;5101204;28;20067;-59
2023/09/01 07:05:06;;;;;;;7.50;3.25;;;;;;;16.87;65.56;101035.03;5096879;28;20078;-59
2023/09/01 07:07:34;;;;;;;7.10;3.05;;;;;;;16.91;65.54;101038.06;5102811;28;20105;-58
2023/09/01 07:10:03;;;;;;;5.20;2.95;;;;;;;16.90;65.66;101031.81;5097760;28;20043;-59
2023/09/01 07:12:31;;;;;;;7.90;3.08;;;;;;;16.91;65.53;101027.19;5091616;28;20048;-59
2023/09/01 07:14:59;;;;;;;4.72;2.70;;;;;;;16.91;65.65;101024.47;5099604;28;20077;-59
2023/09/01 07:17:26;;;;;;;5.93;2.80;;;;;;;16.90;65.50;101018.25;5095376;28;20047;-58
2023/09/01 07:19:55;;;;;;;4.57;2.47;;;;;;;16.89;65.71;101010.34;5101807;28;20044;-59
2023/09/01 07:22:24;;;;;;;8.50;3.15;;;;;;;16.90;65.83;101015.53;5102415;28;20048;-59
2023/09/01 07:24:52;;;;;;;8.52;3.63;;;;;;;16.90;65.88;101014.69;5102205;28;20055;-59
2023/09/01 07:27:19;;;;;;;4.88;2.47;;;;;;;16.90;65.91;101018.25;5098730;28;20196;-59
2023/09/01 07:29:48;;;;;;;5.03;2.58;;;;;;;16.91;65.98;101021.78;5100721;28;20052;-58
2023/09/01 07:32:17;;;;;;;4.35;2.72;;;;;;;16.88;65.82;101006.81;5102863;28;20105;-59
2023/09/01 07:34:47;;;;;;;5.28;2.50;;;;;;;16.90;65.98;101009.28;5099507;28;20115;-59
2023/09/01 07:37:15;;;;;;;5.60;2.65;;;;;;;16.90;66.10;101012.81;5101010;28;20050;-59
2023/09/01 07:39:44;;;;;;;7.97;2.42;;;;;;;16.92;65.84;101017.97;5100829;28;20122;-58
2023/09/01 07:42:12;;;;;;;5.88;3.17;;;;;;;16.91;65.78;101014.44;5100402;28;20063;-59
2023/09/01 07:44:39;;;;;;;4.30;2.53;;;;;;;16.92;66.00;101017.97;5100465;28;20048;-59
2023/09/01 07:47:07;;;;;;;4.18;2.53;;;;;;;16.93;66.06;101022.31;5102370;28;20056;-58
2023/09/01 07:49:35;;;;;;;4.72;2.38;;;;;;;16.93;66.03;101027.75;5102100;28;20056;-58
2023/09/01 07:52:03;;;;;;;6.45;2.63;;;;;;;16.93;66.36;101025.03;5103787;28;20039;-59
2023/09/01 07:54:33;;;;;;;4.68;2.67;;;;;;;16.93;66.03;101025.03;5101937;28;20063;-59
2023/09/01 07:57:03;;;;;;;5.72;2.72;;;;;;;16.94;66.09;101025.88;5101998;28;20044;-58
2023/09/01 07:59:30;;;;;;;5.88;2.30;;;;;;;16.95;65.78;101030.22;5092245;28;20114;-59
2023/09/01 08:01:58;;;;;;;3.75;2.30;;;;;;;16.94;65.77;101025.88;5094794;28;20048;-58
2023/09/01 08:04:26;;;;;;;4.38;2.75;;;;;;;16.94;65.86;101032.13;5101264;28;20040;-58
2023/09/01 08:06:54;;;;;;;2.92;1.80;;;;;;;16.95;65.84;101031.03;5096374;28;20040;-58
2023/09/01 08:09:22;;;;;;;3.33;1.92;;;;;;;16.96;65.77;101038.09;5100338;28;20081;-58
2023/09/01 08:11:49;;;;;;;4.05;2.22;;;;;;;16.96;65.64;101031.84;5099576;28;20105;-59
2023/09/01 08:14:18;;;;;;;3.72;2.00;;;;;;;16.96;65.87;101035.38;5099698;28;20052;-58
2023/09/01 08:16:47;;;;;;;3.85;2.10;;;;;;;16.97;65.83;101038.91;5096789;28;20056;-59
2023/09/01 08:19:15;;;;;;;3.28;2.10;;;;;;;16.97;65.84;101047.06;5105443;28;20052;-56
2023/09/01 08:21:43;;;;;;;4.82;2.63;;;;;;;16.97;66.01;101041.63;5102387;28;20050;-58
2023/09/01 08:24:11;;;;;;;4.90;2.38;;;;;;;16.96;66.09;101043.53;5102262;28;20044;-57
2023/09/01 08:26:39;;;;;;;4.28;2.03;;;;;;;16.96;66.41;101048.13;5105584;28;20044;-57
2023/09/01 08:29:06;;;;;;;5.07;2.42;;;;;;;16.94;66.25;101051.13;5104726;28;20657;-57
2023/09/01 08:31:35;;;;;;;4.43;2.88;;;;;;;16.98;66.02;101062.28;5103857;28;20051;-57
2023/09/01 08:34:04;;;;;;;4.00;1.95;;;;;;;16.97;65.88;101056.03;5103906;28;20082;-59
2023/09/01 08:36:31;;;;;;;4.13;2.22;;;;;;;16.99;66.12;101053.06;5104875;28;20044;-56
2023/09/01 08:38:59;;;;;;;4.80;2.20;;;;;;;16.97;66.26;101057.94;5103780;28;20412;-57
2023/09/01 08:41:27;;;;;;;5.13;2.20;;;;;;;16.97;65.95;101060.63;5104811;28;20048;-57
2023/09/01 08:44:02;;;;;;;3.10;2.15;;;;;;;16.97;66.04;101064.19;5102845;28;20056;-56
2023/09/01 08:46:30;;;;;;;7.13;2.65;;;;;;;16.97;66.06;101071.50;5103276;28;20052;-58
2023/09/01 08:49:02;;;;;;;3.63;2.28;;;;;;;16.98;66.12;101073.13;5104640;28;20052;-57
2023/09/01 08:51:31;;;;;;;4.78;2.70;;;;;;;16.98;66.36;101073.97;5103677;28;20423;-58
2023/09/01 08:54:00;;;;;;;6.32;2.60;;;;;;;16.98;66.15;101081.28;5102659;28;20056;-57
2023/09/01 08:56:30;;;;;;;4.03;2.13;;;;;;;16.99;66.01;101080.22;5104765;28;20052;-58
2023/09/01 08:58:57;;;;;;;4.00;2.33;;;;;;;16.98;65.93;101084.81;5101719;28;20116;-57
2023/09/01 09:01:25;;;;;;;3.88;2.40;;;;;;;16.99;66.12;101091.06;5103252;28;20057;-58
2023/09/01 09:03:52;;;;;;;4.32;2.50;;;;;;;16.99;65.93;101080.22;5104271;28;20130;-57
2023/09/01 09:06:33;;;;;;;4.65;2.08;;;;;;;16.99;66.00;101091.06;5101808;28;20114;-59
2023/09/01 09:09:06;;;;;;;5.57;2.53;;;;;;;16.98;66.62;101081.28;5103557;28;20063;-58
2023/09/01 09:11:35;;;;;;;3.78;2.65;;;;;;;16.99;66.57;101080.22;5098891;28;20092;-57
2023/09/01 09:14:02;;;;;;;5.30;2.80;;;;;;;16.99;66.72;101080.22;5102695;28;20044;-56
2023/09/01 09:16:52;;;;;;;3.40;2.08;;;;;;;16.99;66.83;101080.22;5102425;28;20063;-58
2023/09/01 09:19:20;;;;;;;4.10;2.17;;;;;;;16.99;66.70;101080.22;5103337;28;20056;-58
2023/09/01 09:21:49;;;;;;;5.00;2.78;;;;;;;17.00;66.80;101074.53;5100701;28;20048;-57
2023/09/01 09:24:34;;;;;;;5.40;2.20;;;;;;;17.01;67.06;101084.31;4747730;28;10000392;-58
2023/09/01 09:27:03;;;;;;;3.85;1.92;;;;;;;17.01;66.82;101086.19;5096854;28;20131;-59
2023/09/01 09:29:39;;;;;;;2.28;1.83;;;;;;;17.00;66.86;101082.66;5096613;28;20052;-56
2023/09/01 09:32:20;;;;;;;3.42;1.88;;;;;;;17.00;66.95;101077.22;5100104;28;20047;-57
2023/09/01 09:35:08;;;;;;;4.95;2.25;;;;;;;17.00;67.08;101093.53;5101266;28;20124;-56
2023/09/01 09:37:41;;;;;;;3.65;1.98;;;;;;;17.01;66.82;101094.34;5100634;28;20083;-57
2023/09/01 09:40:14;;;;;;;2.83;1.70;;;;;;;17.01;66.81;101094.34;5099202;28;20051;-58
2023/09/01 09:42:44;;;;;;;3.20;1.83;;;;;;;17.01;66.72;101089.72;5098832;28;20067;-57
2023/09/01 09:45:28;;;;;;;3.13;1.98;;;;;;;17.01;66.73;101097.88;5090110;28;20098;-58
2023/09/01 09:47:58;;;;;;;3.28;1.90;;;;;;;16.95;66.89;101084.53;5091833;28;20043;-58
2023/09/01 09:50:27;;;;;;;3.08;1.70;;;;;;;17.02;66.75;101098.69;5100005;28;20058;-58
2023/09/01 09:53:00;;;;;;;4.43;1.83;;;;;;;17.03;66.60;101094.91;5100380;28;20048;-58
2023/09/01 09:55:30;;;;;;;3.13;1.98;;;;;;;17.03;66.67;101103.88;5095839;28;20055;-59
2023/09/01 09:58:07;;;;;;;2.60;1.80;;;;;;;17.05;66.72;101100.91;5090459;28;20342;-58
2023/09/01 10:00:41;;;;;;;2.40;1.98;;;;;;;17.04;66.64;101100.06;5097573;28;20129;-57
2023/09/01 10:03:09;;;;;;;3.63;1.63;;;;;;;17.05;66.45;101090.03;5098156;28;20055;-57
2023/09/01 10:05:39;;;;;;;1.85;1.33;;;;;;;17.05;66.65;101087.31;5092804;28;20048;-55
2023/09/01 10:08:11;;;;;;;2.30;1.52;;;;;;;17.05;66.65;101084.59;5096094;28;20055;-57
2023/09/01 10:10:39;;;;;;;1.85;1.40;;;;;;;16.95;66.53;101068.22;5097181;28;20048;-56
2023/09/01 10:13:08;;;;;;;4.95;1.67;;;;;;;17.05;66.53;101088.13;5098681;28;20056;-55
2023/09/01 10:15:37;;;;;;;2.38;1.80;;;;;;;17.07;66.55;101079.72;5098192;28;20048;-57
2023/09/01 10:18:08;;;;;;;2.08;1.45;;;;;;;17.07;66.51;101079.72;5098423;28;20136;-58
2023/09/01 10:20:38;;;;;;;1.85;1.48;;;;;;;17.07;66.60;101085.97;5088026;28;20045;-57
2023/09/01 10:23:06;;;;;;;2.85;1.40;;;;;;;17.07;66.63;101077.00;5099577;28;20471;-56
2023/09/01 10:25:36;;;;;;;1.73;1.40;;;;;;;17.04;66.84;101081.06;5095789;28;20043;-57
2023/09/01 10:28:06;;;;;;;2.88;1.38;;;;;;;17.06;67.14;101083.53;5097736;28;20052;-58
2023/09/01 10:30:36;;;;;;;3.90;1.50;;;;;;;17.06;67.13;101087.06;5098380;28;20051;-57
2023/09/01 10:33:08;;;;;;;2.05;1.33;;;;;;;17.07;67.17;101085.16;5090058;28;20055;-57
2023/09/01 10:35:45;;;;;;;1.70;1.30;;;;;;;17.07;67.08;101077.84;5096228;28;20059;-56
2023/09/01 10:38:17;;;;;;;1.45;1.10;;;;;;;17.07;67.02;101077.84;5097837;28;20075;-57
2023/09/01 10:40:49;;;;;;;2.65;1.27;;;;;;;17.08;67.11;101079.47;5097510;28;20047;-58
2023/09/01 10:43:55;;;;;;;2.42;1.60;;;;;;;17.08;67.18;101084.91;5098738;28;20082;-58
2023/09/01 10:46:27;;;;;;;3.20;1.30;;;;;;;17.05;67.04;101074.56;5089538;28;20119;-58
2023/09/01 10:48:57;;;;;;;1.38;1.23;;;;;;;17.08;66.97;101079.47;5094789;28;20040;-58
2023/09/01 10:51:27;;;;;;;2.33;1.25;;;;;;;17.09;67.13;101083.81;5099479;28;20048;-58
2023/09/01 10:53:56;;;;;;;2.05;1.30;;;;;;;17.08;67.33;101087.63;5098893;28;20289;-57
2023/09/01 10:56:25;;;;;;;1.70;1.27;;;;;;;17.11;67.79;101091.72;5094510;28;20052;-57
2023/09/01 10:58:55;;;;;;;1.98;1.25;;;;;;;17.12;67.86;101090.63;5094087;28;20052;-57
2023/09/01 11:01:27;;;;;;;2.40;1.30;;;;;;;17.12;68.09;101085.22;5094989;28;20097;-58
2023/09/01 11:03:56;;;;;;;3.05;1.60;;;;;;;17.12;67.80;101096.88;5092569;28;20040;-56
2023/09/01 11:06:24;;;;;;;4.78;1.33;;;;;;;17.10;67.53;101095.50;5093983;28;20050;-58
2023/09/01 11:08:59;;;;;;;2.08;1.30;;;;;;;17.13;67.71;101106.69;5099224;28;20056;-58
2023/09/01 11:11:29;;;;;;;2.03;1.10;;;;;;;17.15;67.85;101100.97;5101372;28;20044;-58
2023/09/01 11:14:01;;;;;;;1.80;1.23;;;;;;;17.16;68.45;101108.06;5097786;28;20074;-58
2023/09/01 11:16:29;;;;;;;1.90;1.27;;;;;;;17.17;68.14;101094.22;5094894;28;20051;-58
2023/09/01 11:19:01;;;;;;;2.17;1.30;;;;;;;17.19;68.27;101102.91;5095207;28;20101;-57
2023/09/01 11:21:29;;;;;;;2.13;1.40;;;;;;;17.19;68.16;101108.34;5099308;28;20063;-58
2023/09/01 11:23:58;;;;;;;2.35;1.23;;;;;;;17.16;70.81;101098.00;5093801;28;20405;-57
2023/09/01 11:26:27;;;;;;;2.78;1.23;;;;;;;17.22;69.98;101107.84;5095300;28;20055;-58
2023/09/01 11:28:56;;;;;;;1.42;1.15;;;;;;;17.23;69.84;101108.66;5087714;28;20056;-58
2023/09/01 11:31:24;;;;;;;1.48;1.17;;;;;;;17.24;70.21;101110.28;5097417;28;20040;-56
2023/09/01 11:33:53;;;;;;;1.55;1.17;;;;;;;17.25;70.92;101117.38;5100576;28;20105;-58